Time;durP1;ratioP1;P1;durP2;ratioP2;P2;SDS_P1;SDS_P2;PMS_P1;PMS_P2;Temp;Humidity;BMP_temperature;BMP_pressure;BME280_temperature;BME280_humidity;BME280_pressure;Samples;Min_cycle;Max_cycle;Signal;HPM_P1;HPM_P2
2021/01/23 00:00:32;;;;;;;6.63;2.37;;;4.70;99.90;;;;;;5030449;28;20045;-67
2021/01/23 00:02:58;;;;;;;7.10;2.47;;;4.60;99.90;;;;;;5018112;28;20050;-67
2021/01/23 00:05:25;;;;;;;5.20;2.27;;;4.60;99.90;;;;;;5017851;28;20060;-67
2021/01/23 00:07:51;;;;;;;4.70;2.27;;;4.60;99.90;;;;;;5017153;28;20041;-67
2021/01/23 00:10:19;;;;;;;5.33;2.43;;;4.60;99.90;;;;;;5018855;28;20072;-67
2021/01/23 00:12:45;;;;;;;4.87;2.03;;;4.60;99.90;;;;;;5017726;28;20056;-67
2021/01/23 00:15:12;;;;;;;4.67;2.00;;;4.50;99.90;;;;;;5019103;28;20042;-67
2021/01/23 00:17:39;;;;;;;4.93;2.00;;;4.50;99.90;;;;;;5014809;28;20046;-67
2021/01/23 00:20:06;;;;;;;7.10;2.00;;;4.50;99.90;;;;;;5020017;28;20523;-67
2021/01/23 00:22:33;;;;;;;10.23;2.40;;;4.50;99.90;;;;;;5021292;28;20745;-68
2021/01/23 00:24:59;;;;;;;6.30;2.63;;;4.50;99.90;;;;;;5020255;28;20045;-67
2021/01/23 00:27:27;;;;;;;5.20;2.20;;;4.60;99.90;;;;;;5019479;28;20424;-67
2021/01/23 00:29:54;;;;;;;5.23;2.30;;;4.60;99.90;;;;;;5022099;28;20056;-67
2021/01/23 00:32:20;;;;;;;4.17;1.90;;;4.50;99.90;;;;;;5025285;28;20128;-68
2021/01/23 00:34:47;;;;;;;5.93;2.37;;;4.50;99.90;;;;;;5025441;28;20049;-67
2021/01/23 00:37:13;;;;;;;4.50;1.97;;;4.50;99.90;;;;;;5026720;28;20049;-68
2021/01/23 00:39:40;;;;;;;4.53;1.93;;;4.50;99.90;;;;;;5017931;28;20050;-68
2021/01/23 00:42:07;;;;;;;5.73;1.97;;;4.40;99.90;;;;;;5017909;28;20435;-67
2021/01/23 00:44:35;;;;;;;4.93;1.93;;;4.30;99.90;;;;;;5012721;28;20054;-68
2021/01/23 00:47:01;;;;;;;5.77;2.03;;;4.30;99.90;;;;;;5019616;28;20042;-67
2021/01/23 00:49:28;;;;;;;5.10;2.20;;;4.30;99.90;;;;;;5013277;28;20049;-68
2021/01/23 00:51:54;;;;;;;5.53;1.70;;;4.20;99.90;;;;;;5013756;28;20064;-68
2021/01/23 00:54:21;;;;;;;6.30;1.90;;;4.30;99.90;;;;;;5014974;28;20092;-68
2021/01/23 00:56:47;;;;;;;5.20;1.70;;;4.30;99.90;;;;;;5018638;28;20060;-68
2021/01/23 00:59:14;;;;;;;5.90;1.83;;;4.30;99.90;;;;;;5024266;28;20050;-68
2021/01/23 01:01:41;;;;;;;4.10;1.70;;;4.30;99.90;;;;;;5021349;28;20045;-68
2021/01/23 01:04:08;;;;;;;3.87;1.80;;;4.30;99.90;;;;;;5019603;28;20045;-68
2021/01/23 01:06:34;;;;;;;3.50;1.50;;;4.40;99.90;;;;;;5020511;28;20045;-67
2021/01/23 01:09:01;;;;;;;4.20;1.70;;;4.30;99.90;;;;;;5021852;28;20050;-67
2021/01/23 01:11:27;;;;;;;4.53;1.57;;;4.30;99.90;;;;;;5019904;28;20054;-67
2021/01/23 01:13:54;;;;;;;4.07;1.80;;;4.20;99.90;;;;;;5025997;28;20046;-68
2021/01/23 01:16:21;;;;;;;3.50;1.53;;;4.20;99.90;;;;;;5030524;28;20488;-67
2021/01/23 01:18:48;;;;;;;3.70;1.83;;;4.20;99.90;;;;;;5017988;28;20077;-67
2021/01/23 01:21:15;;;;;;;5.33;1.90;;;4.10;99.90;;;;;;5015643;28;20057;-68
2021/01/23 01:23:42;;;;;;;5.13;1.97;;;4.20;99.90;;;;;;5022932;28;20156;-67
2021/01/23 01:26:09;;;;;;;4.70;1.93;;;4.30;99.90;;;;;;5025192;28;20057;-68
2021/01/23 01:28:35;;;;;;;4.10;1.67;;;4.20;99.90;;;;;;5026267;28;20133;-67
2021/01/23 01:31:03;;;;;;;5.33;1.90;;;4.20;99.90;;;;;;5011781;28;20046;-67
2021/01/23 01:33:29;;;;;;;4.30;2.00;;;4.20;99.90;;;;;;5009397;28;20050;-68
2021/01/23 01:35:57;;;;;;;4.23;1.70;;;4.20;99.90;;;;;;5014823;28;20679;-68
2021/01/23 01:38:23;;;;;;;6.07;2.10;;;4.30;99.90;;;;;;5014183;28;20061;-68
2021/01/23 01:40:51;;;;;;;6.00;2.03;;;4.30;99.90;;;;;;5014151;28;20050;-68
2021/01/23 01:43:18;;;;;;;4.93;2.00;;;4.30;99.90;;;;;;5016092;28;20049;-68
2021/01/23 01:45:45;;;;;;;4.70;2.17;;;4.20;99.90;;;;;;5018759;28;20054;-68
2021/01/23 01:48:12;;;;;;;4.93;1.97;;;4.30;99.90;;;;;;5017966;28;20045;-68
2021/01/23 01:50:39;;;;;;;5.00;2.10;;;4.20;99.90;;;;;;5016996;28;20477;-67
2021/01/23 01:53:07;;;;;;;5.63;2.30;;;4.30;99.90;;;;;;5020480;28;20061;-68
2021/01/23 01:55:34;;;;;;;6.37;2.50;;;4.20;99.90;;;;;;5011323;28;20057;-68
2021/01/23 01:58:01;;;;;;;7.33;2.70;;;4.10;99.90;;;;;;5013211;28;20065;-68
2021/01/23 02:00:28;;;;;;;5.90;2.47;;;4.10;99.90;;;;;;5013755;28;20050;-68
2021/01/23 02:03:21;;;;;;;5.87;3.30;;;4.00;99.90;;;;;;5007710;28;20054;-68
2021/01/23 02:05:55;;;;;;;6.17;2.60;;;4.00;99.90;;;;;;5005090;28;20053;-68
2021/01/23 02:08:32;;;;;;;8.77;3.10;;;4.00;99.90;;;;;;5005315;28;20081;-68
2021/01/23 02:11:07;;;;;;;9.73;3.40;;;4.10;99.90;;;;;;5004771;28;20133;-68
2021/01/23 02:13:41;;;;;;;7.20;3.27;;;4.00;99.90;;;;;;5004162;28;20492;-68
2021/01/23 02:16:20;;;;;;;6.57;2.60;;;4.00;99.90;;;;;;5009906;28;20072;-68
2021/01/23 02:18:54;;;;;;;6.53;2.93;;;4.00;99.90;;;;;;5008127;28;20053;-68
2021/01/23 02:21:51;;;;;;;6.87;3.27;;;3.90;99.90;;;;;;5004138;28;20034;-67
2021/01/23 02:24:24;;;;;;;7.43;3.30;;;3.80;99.90;;;;;;5022969;28;20088;-68
2021/01/23 02:27:07;;;;;;;7.50;3.30;;;3.70;99.90;;;;;;5030679;28;20058;-69
2021/01/23 02:29:48;;;;;;;9.87;3.23;;;3.70;99.90;;;;;;5021078;28;20555;-69
2021/01/23 02:32:17;;;;;;;13.83;3.60;;;3.60;99.90;;;;;;5013644;28;20046;-69
2021/01/23 02:34:45;;;;;;;6.00;2.30;;;3.70;99.90;;;;;;5014635;28;20045;-69
2021/01/23 02:37:12;;;;;;;4.70;1.97;;;3.60;99.90;;;;;;5015948;28;20136;-69
2021/01/23 02:39:40;;;;;;;5.43;1.77;;;3.50;99.90;;;;;;5014207;28;20046;-69
2021/01/23 02:42:08;;;;;;;5.40;1.73;;;3.30;99.90;;;;;;5022287;28;20056;-70
2021/01/23 02:44:34;;;;;;;4.20;1.90;;;3.30;99.90;;;;;;5024560;28;20049;-70
2021/01/23 02:47:04;;;;;;;3.90;1.80;;;3.00;99.90;;;;;;5025269;28;20046;-70
2021/01/23 02:49:31;;;;;;;4.47;1.97;;;2.80;99.90;;;;;;5024569;28;20049;-69
2021/01/23 02:52:04;;;;;;;3.03;1.63;;;2.70;99.90;;;;;;5025156;28;20057;-70
2021/01/23 02:54:40;;;;;;;4.40;1.67;;;2.60;99.90;;;;;;5017933;28;20042;-70
2021/01/23 02:57:11;;;;;;;3.70;1.60;;;2.50;99.90;;;;;;5005374;28;20112;-70
2021/01/23 02:59:40;;;;;;;4.13;1.50;;;2.40;99.90;;;;;;5005437;28;20053;-70
2021/01/23 03:02:11;;;;;;;3.17;1.57;;;2.30;99.90;;;;;;5004026;28;20441;-70
2021/01/23 03:04:40;;;;;;;3.83;1.60;;;2.20;99.90;;;;;;5003888;28;20054;-71
2021/01/23 03:07:07;;;;;;;3.17;1.50;;;2.00;99.90;;;;;;5004775;28;20141;-71
2021/01/23 03:09:35;;;;;;;3.63;1.43;;;2.00;99.90;;;;;;5004341;28;20428;-71
2021/01/23 03:12:02;;;;;;;3.27;1.40;;;1.80;99.90;;;;;;5005223;28;20161;-71
2021/01/23 03:14:28;;;;;;;4.70;1.50;;;1.80;99.90;;;;;;5004007;28;20488;-71
2021/01/23 03:16:56;;;;;;;3.20;1.40;;;1.80;99.90;;;;;;5005180;28;20058;-72
2021/01/23 03:19:23;;;;;;;3.80;1.30;;;1.70;99.90;;;;;;5004919;28;20100;-72
2021/01/23 03:21:52;;;;;;;2.50;1.13;;;1.70;99.90;;;;;;5014374;28;20050;-71
2021/01/23 03:24:20;;;;;;;5.10;1.10;;;1.70;99.90;;;;;;5019331;28;20532;-72
2021/01/23 03:26:47;;;;;;;1.73;1.10;;;1.60;99.90;;;;;;5007285;28;20046;-72
2021/01/23 03:29:14;;;;;;;4.67;1.50;;;1.60;99.90;;;;;;5005348;28;20050;-72
2021/01/23 03:31:40;;;;;;;4.10;1.27;;;1.70;99.90;;;;;;5003591;28;20097;-73
2021/01/23 03:34:07;;;;;;;3.00;1.37;;;1.60;99.90;;;;;;5003223;28;20050;-74
2021/01/23 03:36:34;;;;;;;2.80;1.50;;;1.50;99.90;;;;;;5003522;28;20057;-74
2021/01/23 03:39:03;;;;;;;3.60;1.20;;;1.60;99.90;;;;;;5003941;28;20045;-75
2021/01/23 03:41:30;;;;;;;3.23;1.20;;;1.60;99.90;;;;;;5003802;28;20061;-75
2021/01/23 03:43:56;;;;;;;3.33;1.13;;;1.50;99.90;;;;;;5002748;28;20057;-77
2021/01/23 03:46:23;;;;;;;2.90;1.20;;;1.50;99.90;;;;;;5003905;28;20504;-77
2021/01/23 03:48:49;;;;;;;2.57;1.10;;;1.50;99.90;;;;;;5006000;28;20152;-78
2021/01/23 03:51:16;;;;;;;2.73;1.20;;;1.50;99.90;;;;;;5008513;28;20420;-79
2021/01/23 03:53:43;;;;;;;3.67;1.27;;;1.50;99.90;;;;;;5027800;28;20052;-77
2021/01/23 03:56:10;;;;;;;3.43;1.20;;;1.50;99.90;;;;;;5008386;28;20045;-78
2021/01/23 03:58:37;;;;;;;3.13;1.40;;;1.50;99.90;;;;;;5005794;28;20060;-77
2021/01/23 04:01:04;;;;;;;2.87;1.13;;;1.50;99.90;;;;;;5005246;28;20057;-77
2021/01/23 04:03:31;;;;;;;3.07;1.23;;;1.50;99.90;;;;;;5011840;28;20147;-77
2021/01/23 04:05:58;;;;;;;3.77;1.03;;;1.50;99.90;;;;;;5022819;28;20053;-77
2021/01/23 04:08:24;;;;;;;3.20;1.27;;;1.50;99.90;;;;;;5024084;28;20056;-77
2021/01/23 04:10:51;;;;;;;3.93;1.10;;;1.40;99.90;;;;;;5023642;28;20463;-76
2021/01/23 04:13:18;;;;;;;3.57;1.37;;;1.50;99.90;;;;;;5022379;28;20045;-77
2021/01/23 04:15:45;;;;;;;7.10;1.27;;;1.50;99.90;;;;;;5023624;28;20119;-76
2021/01/23 04:18:12;;;;;;;2.97;1.10;;;1.40;99.90;;;;;;5023819;28;20049;-76
2021/01/23 04:20:38;;;;;;;1.90;1.00;;;1.40;99.90;;;;;;5022783;28;20064;-76
2021/01/23 04:23:05;;;;;;;2.00;0.90;;;1.40;99.90;;;;;;5020800;28;20076;-76
2021/01/23 04:25:32;;;;;;;4.07;0.80;;;1.40;99.90;;;;;;5008407;28;20053;-76
2021/01/23 04:27:59;;;;;;;6.17;1.13;;;1.40;99.90;;;;;;5023201;28;20133;-76
2021/01/23 04:30:26;;;;;;;2.53;1.00;;;1.50;99.90;;;;;;5023239;28;20056;-76
2021/01/23 04:32:53;;;;;;;2.47;1.10;;;1.50;99.90;;;;;;5024614;28;20050;-76
2021/01/23 04:35:20;;;;;;;3.13;1.20;;;1.50;99.90;;;;;;5026848;28;20069;-76
2021/01/23 04:37:46;;;;;;;2.40;1.23;;;1.50;99.90;;;;;;5027385;28;20507;-77
2021/01/23 04:40:14;;;;;;;3.47;1.27;;;1.50;99.90;;;;;;5024200;28;20049;-77
2021/01/23 04:42:41;;;;;;;3.00;1.20;;;1.40;99.90;;;;;;5026774;28;20452;-76
2021/01/23 04:45:09;;;;;;;2.40;1.10;;;1.50;99.90;;;;;;5027675;28;20080;-77
2021/01/23 04:47:36;;;;;;;3.87;1.40;;;1.50;99.90;;;;;;5027399;28;20045;-77
2021/01/23 04:50:04;;;;;;;2.57;1.00;;;1.50;99.90;;;;;;5027775;28;20053;-77
2021/01/23 04:52:34;;;;;;;2.70;1.40;;;1.50;99.90;;;;;;5040616;28;20025;-76
2021/01/23 04:55:00;;;;;;;1.80;0.90;;;1.60;99.90;;;;;;5047236;28;20041;-76
2021/01/23 04:57:27;;;;;;;2.60;1.30;;;1.70;99.90;;;;;;5036738;28;20050;-76
2021/01/23 04:59:53;;;;;;;1.93;0.93;;;1.50;99.90;;;;;;5027870;28;20045;-76
2021/01/23 05:02:21;;;;;;;2.57;0.87;;;1.60;99.90;;;;;;5026828;28;20050;-76
2021/01/23 05:04:52;;;;;;;2.27;0.90;;;1.60;99.90;;;;;;5026840;28;20111;-76
2021/01/23 05:07:29;;;;;;;3.13;1.00;;;1.50;99.90;;;;;;5027244;28;20064;-76
2021/01/23 05:09:56;;;;;;;1.97;0.67;;;1.60;99.90;;;;;;5021971;28;20042;-76
2021/01/23 05:12:41;;;;;;;1.73;0.93;;;1.70;99.90;;;;;;5025507;28;20045;-76
2021/01/23 05:15:10;;;;;;;2.70;0.80;;;1.60;99.90;;;;;;5012151;28;20420;-76
2021/01/23 05:17:51;;;;;;;2.10;1.00;;;1.60;99.90;;;;;;5012589;28;20048;-76
2021/01/23 05:20:35;;;;;;;3.73;1.03;;;1.70;99.90;;;;;;5023414;28;20062;-76
2021/01/23 05:23:03;;;;;;;2.80;1.10;;;1.60;99.90;;;;;;5021084;28;20053;-76
2021/01/23 05:25:32;;;;;;;2.37;1.00;;;1.60;99.90;;;;;;5017379;28;20069;-75
2021/01/23 05:28:00;;;;;;;3.37;1.30;;;1.70;99.90;;;;;;5020447;28;20056;-75
2021/01/23 05:30:43;;;;;;;3.70;1.50;;;1.70;99.90;;;;;;5014811;28;20056;-75
2021/01/23 05:33:11;;;;;;;4.00;1.50;;;1.60;99.90;;;;;;5023915;28;20045;-75
2021/01/23 05:35:39;;;;;;;3.60;1.60;;;1.70;99.90;;;;;;5026082;28;20045;-75
2021/01/23 05:38:26;;;;;;;4.10;1.40;;;1.70;99.90;;;;;;5026545;28;20427;-76
2021/01/23 05:40:55;;;;;;;4.18;1.63;;;1.80;99.90;;;;;;5025700;28;20049;-76
2021/01/23 05:43:36;;;;;;;4.40;1.97;;;1.70;99.90;;;;;;5023934;28;20050;-75
2021/01/23 05:46:05;;;;;;;4.80;1.70;;;1.70;99.90;;;;;;5024284;28;20042;-76
2021/01/23 05:48:32;;;;;;;7.57;1.60;;;1.80;99.90;;;;;;5025100;28;20045;-75
2021/01/23 05:50:59;;;;;;;5.27;1.80;;;1.80;99.90;;;;;;5022865;28;20092;-75
2021/01/23 05:53:26;;;;;;;4.33;1.90;;;1.80;99.90;;;;;;5023760;28;20499;-75
2021/01/23 05:55:53;;;;;;;4.83;2.10;;;1.80;99.90;;;;;;5006065;28;20053;-75
2021/01/23 05:58:20;;;;;;;4.77;2.00;;;1.80;99.90;;;;;;5017359;28;20049;-75
2021/01/23 06:00:48;;;;;;;4.93;2.07;;;1.80;99.90;;;;;;5025132;28;20095;-75
2021/01/23 06:03:16;;;;;;;4.50;2.00;;;1.70;99.90;;;;;;5023535;28;20052;-75
2021/01/23 06:05:42;;;;;;;4.90;2.13;;;1.80;99.90;;;;;;5025252;28;20049;-75
2021/01/23 06:08:10;;;;;;;6.47;2.00;;;1.60;99.90;;;;;;5025392;28;20107;-75
2021/01/23 06:10:44;;;;;;;6.87;2.10;;;1.70;99.90;;;;;;5025545;28;20103;-75
2021/01/23 06:13:45;;;;;;;5.20;2.17;;;1.60;99.90;;;;;;5024268;28;20050;-75
2021/01/23 06:16:37;;;;;;;5.63;2.13;;;1.70;99.90;;;;;;5004695;28;20041;-75
2021/01/23 06:19:37;;;;;;;5.20;2.23;;;1.70;99.90;;;;;;5019608;28;20052;-75
2021/01/23 06:22:04;;;;;;;6.47;2.00;;;1.60;99.90;;;;;;5021320;28;20103;-75
2021/01/23 06:24:52;;;;;;;6.17;2.30;;;1.60;99.90;;;;;;5017834;28;20046;-75
2021/01/23 06:27:19;;;;;;;5.67;2.20;;;1.70;99.90;;;;;;5021897;28;20053;-75
2021/01/23 06:29:46;;;;;;;4.67;2.17;;;1.60;99.90;;;;;;5025421;28;20050;-75
2021/01/23 06:32:30;;;;;;;4.70;1.80;;;1.70;99.90;;;;;;5024340;28;20259;-75
2021/01/23 06:34:59;;;;;;;4.20;1.90;;;1.70;99.90;;;;;;5015238;28;20041;-76
2021/01/23 06:37:29;;;;;;;4.80;1.90;;;1.80;99.90;;;;;;5024599;28;20057;-75
2021/01/23 06:40:08;;;;;;;5.53;2.00;;;1.80;99.90;;;;;;5024476;28;20079;-75
2021/01/23 06:42:36;;;;;;;7.03;2.93;;;1.80;99.90;;;;;;5023045;28;20136;-76
2021/01/23 06:45:23;;;;;;;6.13;2.13;;;1.80;99.90;;;;;;5024438;28;20041;-76
2021/01/23 06:47:51;;;;;;;4.28;1.75;;;1.80;99.90;;;;;;5024698;28;20061;-75
2021/01/23 06:50:33;;;;;;;5.83;2.30;;;1.90;99.90;;;;;;5026666;28;20095;-76
2021/01/23 06:53:00;;;;;;;3.90;1.63;;;1.90;99.90;;;;;;5022596;28;20049;-75
2021/01/23 06:55:49;;;;;;;4.30;2.10;;;1.90;99.90;;;;;;5016596;28;20065;-75
2021/01/23 06:58:20;;;;;;;5.03;2.07;;;1.70;99.90;;;;;;5024772;28;20046;-75
2021/01/23 07:00:48;;;;;;;5.43;1.73;;;1.70;99.90;;;;;;5024328;28;20041;-76
2021/01/23 07:03:15;;;;;;;3.60;1.50;;;1.80;99.90;;;;;;5022882;28;20049;-75
2021/01/23 07:05:46;;;;;;;6.17;1.87;;;1.80;99.90;;;;;;5024957;28;20107;-75
2021/01/23 07:08:20;;;;;;;5.00;1.50;;;1.90;99.90;;;;;;5024887;28;20049;-75
2021/01/23 07:11:06;;;;;;;3.90;1.80;;;1.90;99.90;;;;;;5024294;28;20426;-75
2021/01/23 07:13:33;;;;;;;4.37;2.00;;;1.90;99.90;;;;;;5009610;28;20098;-76
2021/01/23 07:16:00;;;;;;;3.90;1.60;;;1.90;99.90;;;;;;5004611;28;20046;-75
2021/01/23 07:18:27;;;;;;;3.93;1.70;;;2.00;99.90;;;;;;5004631;28;20057;-75
2021/01/23 07:20:54;;;;;;;4.23;1.73;;;1.90;99.90;;;;;;5004189;28;20451;-75
2021/01/23 07:23:21;;;;;;;5.83;2.30;;;1.80;99.90;;;;;;5008767;28;20042;-74
2021/01/23 07:25:50;;;;;;;6.50;2.40;;;1.90;99.90;;;;;;5007852;28;20054;-75
2021/01/23 07:28:18;;;;;;;5.50;2.20;;;1.90;99.90;;;;;;5022482;28;20052;-74
2021/01/23 07:30:45;;;;;;;6.07;2.73;;;2.00;99.90;;;;;;5024464;28;20053;-74
2021/01/23 07:33:11;;;;;;;4.90;2.33;;;2.00;99.90;;;;;;5023481;28;20061;-73
2021/01/23 07:35:39;;;;;;;4.87;2.10;;;2.10;99.90;;;;;;5024999;28;20492;-74
2021/01/23 07:38:08;;;;;;;4.03;2.00;;;2.00;99.90;;;;;;5024868;28;20128;-74
2021/01/23 07:40:36;;;;;;;4.43;1.90;;;1.90;99.90;;;;;;5024757;28;20053;-73
2021/01/23 07:43:05;;;;;;;5.23;2.07;;;2.00;99.90;;;;;;5023098;28;20077;-73
2021/01/23 07:45:32;;;;;;;7.47;2.43;;;2.00;99.90;;;;;;5024406;28;20049;-73
2021/01/23 07:47:59;;;;;;;5.37;1.97;;;2.00;99.90;;;;;;5024536;28;20049;-73
2021/01/23 07:50:28;;;;;;;7.27;1.93;;;2.10;99.90;;;;;;5024537;28;20072;-72
2021/01/23 07:52:54;;;;;;;5.77;1.90;;;2.00;99.90;;;;;;5023584;28;20053;-72
2021/01/23 07:55:37;;;;;;;5.37;2.33;;;2.00;99.90;;;;;;5023497;28;20447;-73
2021/01/23 07:58:09;;;;;;;8.13;2.47;;;2.00;99.90;;;;;;5023950;28;20488;-73
2021/01/23 08:00:36;;;;;;;6.17;2.40;;;2.00;99.90;;;;;;5024327;28;20055;-72
2021/01/23 08:03:02;;;;;;;4.93;2.10;;;2.10;99.90;;;;;;5022856;28;20064;-73
2021/01/23 08:05:47;;;;;;;6.23;2.47;;;2.10;99.90;;;;;;5025073;28;20058;-73
2021/01/23 08:08:29;;;;;;;8.10;3.00;;;2.20;99.90;;;;;;5029683;28;20049;-72
2021/01/23 08:10:56;;;;;;;6.50;2.63;;;2.20;99.90;;;;;;5030881;28;20099;-72
2021/01/23 08:13:28;;;;;;;6.80;3.37;;;2.10;99.90;;;;;;5026607;28;20054;-72
2021/01/23 08:16:09;;;;;;;6.33;2.67;;;2.20;99.90;;;;;;5030754;28;20133;-73
2021/01/23 08:18:36;;;;;;;6.90;2.90;;;2.20;99.90;;;;;;5030465;28;20049;-72
2021/01/23 08:21:03;;;;;;;6.17;3.10;;;2.20;99.90;;;;;;5030349;28;20045;-72
2021/01/23 08:23:33;;;;;;;7.13;2.57;;;2.30;99.90;;;;;;5029681;28;20049;-72
2021/01/23 08:26:00;;;;;;;7.83;3.10;;;2.30;99.90;;;;;;5020974;28;20045;-72
2021/01/23 08:28:39;;;;;;;7.77;3.80;;;2.30;99.90;;;;;;5030302;28;20049;-73
2021/01/23 08:31:13;;;;;;;7.17;3.13;;;2.30;99.90;;;;;;5030435;28;20519;-72
2021/01/23 08:33:40;;;;;;;8.23;3.80;;;2.40;99.90;;;;;;5029480;28;20053;-72
2021/01/23 08:36:07;;;;;;;9.10;4.13;;;2.50;99.90;;;;;;5029777;28;20122;-71
2021/01/23 08:38:33;;;;;;;9.43;4.17;;;2.50;99.90;;;;;;5030265;28;20089;-72
2021/01/23 08:41:00;;;;;;;15.33;6.37;;;2.50;99.90;;;;;;5029615;28;20076;-71
2021/01/23 08:43:28;;;;;;;12.07;6.00;;;2.50;99.90;;;;;;5011040;28;20050;-72
2021/01/23 08:45:56;;;;;;;13.53;6.37;;;2.50;99.90;;;;;;5010060;28;20339;-72
2021/01/23 08:48:22;;;;;;;14.33;6.60;;;2.60;99.90;;;;;;5010250;28;20050;-72
2021/01/23 08:50:49;;;;;;;13.23;5.67;;;2.70;99.90;;;;;;5010063;28;20053;-72
2021/01/23 08:53:15;;;;;;;14.93;6.40;;;2.70;99.90;;;;;;5009972;28;20475;-72
2021/01/23 08:55:43;;;;;;;11.83;5.70;;;2.70;99.90;;;;;;5018048;28;20041;-73
2021/01/23 08:58:09;;;;;;;11.97;6.13;;;2.70;99.90;;;;;;5028166;28;20049;-73
2021/01/23 09:00:36;;;;;;;13.23;6.03;;;2.70;99.90;;;;;;5030198;28;20064;-73
2021/01/23 09:03:04;;;;;;;14.00;6.40;;;2.70;99.90;;;;;;5028774;28;20050;-74
2021/01/23 09:05:31;;;;;;;10.07;4.67;;;2.80;99.90;;;;;;5030087;28;20120;-73
2021/01/23 09:07:58;;;;;;;10.83;5.20;;;2.90;99.90;;;;;;5030026;28;20060;-72
2021/01/23 09:10:24;;;;;;;8.57;3.77;;;3.00;99.90;;;;;;5029203;28;20041;-73
2021/01/23 09:12:51;;;;;;;7.50;3.40;;;3.10;99.90;;;;;;5028340;28;20053;-73
2021/01/23 09:15:18;;;;;;;7.90;3.53;;;3.10;99.90;;;;;;5029610;28;20056;-73
2021/01/23 09:17:44;;;;;;;8.93;3.57;;;3.20;99.90;;;;;;5029581;28;20099;-73
2021/01/23 09:20:13;;;;;;;7.23;3.27;;;3.20;99.90;;;;;;5027993;28;20884;-73
2021/01/23 09:22:39;;;;;;;7.23;3.17;;;3.40;99.90;;;;;;5027992;28;20046;-72
2021/01/23 09:25:07;;;;;;;7.10;3.40;;;3.30;99.90;;;;;;5019880;28;20050;-73
2021/01/23 09:27:34;;;;;;;6.57;3.00;;;3.30;99.90;;;;;;5008759;28;20050;-72
2021/01/23 09:30:00;;;;;;;8.13;3.20;;;3.30;99.90;;;;;;5008998;28;20046;-73
2021/01/23 09:32:27;;;;;;;6.47;2.97;;;3.30;99.90;;;;;;5008080;28;20551;-72
2021/01/23 09:34:54;;;;;;;6.33;3.00;;;3.40;99.90;;;;;;5009068;28;20439;-72
2021/01/23 09:37:25;;;;;;;6.13;3.17;;;3.60;99.90;;;;;;5008989;28;20053;-73
2021/01/23 09:39:52;;;;;;;7.63;3.20;;;3.70;99.90;;;;;;5008911;28;20076;-72
2021/01/23 09:42:18;;;;;;;8.17;3.67;;;4.00;99.90;;;;;;5008667;28;20087;-72
2021/01/23 09:44:45;;;;;;;6.73;3.17;;;4.50;99.90;;;;;;5008893;28;20068;-73
2021/01/23 09:47:14;;;;;;;8.37;2.93;;;4.80;99.90;;;;;;5009345;28;20053;-72
2021/01/23 09:49:41;;;;;;;5.90;2.30;;;4.90;99.90;;;;;;5009290;28;20085;-73
2021/01/23 09:52:07;;;;;;;5.97;2.03;;;4.90;99.90;;;;;;5008840;28;20100;-72
2021/01/23 09:54:35;;;;;;;5.07;2.10;;;5.00;99.90;;;;;;5013194;28;20056;-73
2021/01/23 09:57:02;;;;;;;6.83;2.40;;;4.70;99.90;;;;;;5012012;28;20312;-72
2021/01/23 09:59:28;;;;;;;6.67;2.93;;;4.70;99.90;;;;;;5009657;28;20062;-73
2021/01/23 10:01:56;;;;;;;8.20;3.67;;;4.40;99.90;;;;;;5010246;28;20250;-73
2021/01/23 10:04:22;;;;;;;6.30;3.30;;;4.00;99.90;;;;;;5008748;28;20536;-72
2021/01/23 10:06:49;;;;;;;7.30;3.70;;;3.80;99.90;;;;;;5008507;28;20057;-72
2021/01/23 10:09:17;;;;;;;8.63;3.97;;;3.60;99.90;;;;;;5007716;28;20057;-71
2021/01/23 10:11:45;;;;;;;11.27;4.20;;;3.40;99.90;;;;;;5008427;28;20108;-71
2021/01/23 10:14:11;;;;;;;12.97;4.67;;;3.40;99.90;;;;;;5008340;28;20050;-71
2021/01/23 10:16:38;;;;;;;10.63;4.40;;;3.50;99.90;;;;;;5015272;28;20518;-71
2021/01/23 10:19:05;;;;;;;8.73;3.93;;;3.50;99.90;;;;;;5021863;28;20053;-72
2021/01/23 10:21:31;;;;;;;11.70;5.10;;;3.60;99.90;;;;;;5014870;28;20259;-72
2021/01/23 10:23:58;;;;;;;13.07;5.40;;;3.60;99.90;;;;;;5015827;28;20045;-71
2021/01/23 10:26:25;;;;;;;11.10;5.33;;;3.50;99.90;;;;;;5016481;28;20424;-71
2021/01/23 10:28:52;;;;;;;10.63;5.20;;;3.60;99.90;;;;;;5021437;28;20045;-71
2021/01/23 10:31:19;;;;;;;9.83;4.23;;;3.40;99.90;;;;;;5187129;22;20024;-76
2021/01/23 10:33:45;;;;;;;11.77;5.63;;;3.20;99.90;;;;;;4969102;28;20046;-76
2021/01/23 10:36:12;;;;;;;15.13;5.43;;;3.20;99.90;;;;;;4967316;28;20043;-77
2021/01/23 10:38:39;;;;;;;14.40;6.00;;;3.20;99.90;;;;;;4968206;28;20065;-76
2021/01/23 10:41:05;;;;;;;14.37;6.30;;;3.20;99.90;;;;;;4949854;28;20515;-76
2021/01/23 10:43:32;;;;;;;14.03;6.60;;;3.20;99.90;;;;;;4958330;28;20357;-76
2021/01/23 10:45:59;;;;;;;15.17;6.87;;;3.30;99.90;;;;;;4957152;28;20054;-76
2021/01/23 10:48:26;;;;;;;15.63;7.67;;;3.30;99.90;;;;;;4942852;28;20053;-76
2021/01/23 10:50:53;;;;;;;17.07;7.37;;;3.40;99.90;;;;;;4952135;28;20421;-76
2021/01/23 10:53:25;;;;;;;15.63;7.70;;;3.40;99.90;;;;;;4955168;28;20101;-76
2021/01/23 10:55:52;;;;;;;14.40;7.00;;;3.40;99.90;;;;;;4954296;28;20100;-76
2021/01/23 10:58:18;;;;;;;16.77;7.80;;;3.30;99.90;;;;;;4950236;28;20055;-76
2021/01/23 11:00:45;;;;;;;19.90;9.73;;;3.40;99.90;;;;;;4948355;28;20102;-76
2021/01/23 11:03:13;;;;;;;17.63;7.93;;;3.30;99.90;;;;;;4955268;28;20138;-76
2021/01/23 11:05:39;;;;;;;18.97;9.07;;;3.30;99.90;;;;;;4954510;28;20092;-77
2021/01/23 11:08:06;;;;;;;20.43;9.37;;;3.40;99.90;;;;;;4945362;28;20082;-76
2021/01/23 11:10:32;;;;;;;20.47;10.00;;;3.40;99.90;;;;;;4949071;28;20043;-76
2021/01/23 11:12:59;;;;;;;20.77;9.97;;;3.40;99.90;;;;;;4944771;28;20066;-76
2021/01/23 11:15:26;;;;;;;22.20;11.10;;;3.60;99.90;;;;;;4947900;29;20519;-77
2021/01/23 11:17:52;;;;;;;22.17;10.50;;;3.60;99.90;;;;;;4948527;29;20502;-77
2021/01/23 11:20:20;;;;;;;26.07;11.13;;;3.60;99.90;;;;;;4946909;28;20575;-76
2021/01/23 11:22:50;;;;;;;24.50;10.90;;;3.70;99.90;;;;;;4947193;29;20442;-77
2021/01/23 11:25:17;;;;;;;19.97;9.33;;;3.90;99.90;;;;;;4947803;29;20418;-76
2021/01/23 11:27:43;;;;;;;21.70;11.40;;;3.80;99.90;;;;;;4947701;29;20061;-77
2021/01/23 11:30:12;;;;;;;21.63;10.60;;;3.80;99.90;;;;;;4943427;28;20047;-76
2021/01/23 11:32:39;;;;;;;23.60;10.13;;;3.80;99.90;;;;;;4939583;28;20055;-77
2021/01/23 11:35:07;;;;;;;20.60;10.60;;;3.80;99.90;;;;;;4943418;29;20070;-77
2021/01/23 11:37:35;;;;;;;22.07;11.73;;;3.70;99.90;;;;;;4944083;29;20163;-77
2021/01/23 11:40:01;;;;;;;20.73;10.80;;;3.70;99.90;;;;;;4943486;28;20070;-77
2021/01/23 11:42:28;;;;;;;28.60;12.23;;;3.80;99.90;;;;;;4934694;28;20931;-77
2021/01/23 11:44:54;;;;;;;22.47;10.63;;;3.80;99.90;;;;;;4941822;29;20502;-76
2021/01/23 11:47:21;;;;;;;20.67;10.67;;;3.80;99.90;;;;;;4952035;29;20059;-76
2021/01/23 11:49:48;;;;;;;25.07;11.03;;;3.80;99.90;;;;;;4951110;28;20149;-79
2021/01/23 11:52:14;;;;;;;25.07;11.63;;;3.80;99.90;;;;;;4946748;29;20102;-77
2021/01/23 11:54:42;;;;;;;24.17;11.47;;;3.70;99.90;;;;;;4946777;29;20047;-76
2021/01/23 11:57:08;;;;;;;25.47;12.33;;;3.80;99.90;;;;;;4944060;29;20066;-77
2021/01/23 11:59:35;;;;;;;20.33;10.73;;;3.80;99.90;;;;;;4942960;28;20055;-78
2021/01/23 12:02:02;;;;;;;17.57;9.70;;;3.70;99.90;;;;;;4934307;29;20083;-77
2021/01/23 12:04:28;;;;;;;21.30;11.17;;;3.70;99.90;;;;;;4939593;29;20047;-78
2021/01/23 12:06:59;;;;;;;18.17;9.57;;;3.70;99.90;;;;;;4946599;29;20066;-76
2021/01/23 12:09:28;;;;;;;22.30;11.33;;;3.50;99.90;;;;;;4952528;28;20458;-78
2021/01/23 12:11:56;;;;;;;20.23;9.87;;;3.60;99.90;;;;;;4952073;29;20453;-77
2021/01/23 12:14:23;;;;;;;22.73;11.40;;;3.70;99.90;;;;;;4950856;28;20114;-77
2021/01/23 12:16:49;;;;;;;23.10;11.00;;;3.60;99.90;;;;;;4950739;28;20051;-76
2021/01/23 12:19:16;;;;;;;24.70;11.70;;;3.60;99.90;;;;;;4943252;28;20374;-77
2021/01/23 12:21:43;;;;;;;20.30;10.60;;;3.90;99.90;;;;;;4928489;29;20059;-77
2021/01/23 12:24:10;;;;;;;17.63;9.60;;;4.00;99.90;;;;;;4930481;29;20055;-76
2021/01/23 12:26:37;;;;;;;22.87;11.20;;;3.70;99.90;;;;;;4932507;28;20594;-80
2021/01/23 12:29:04;;;;;;;20.60;10.40;;;3.70;99.90;;;;;;4932316;28;20055;-77
2021/01/23 12:31:31;;;;;;;18.10;9.90;;;3.70;99.90;;;;;;4932911;28;20047;-79
2021/01/23 12:33:58;;;;;;;21.37;11.43;;;3.80;99.90;;;;;;4930988;29;20067;-77
2021/01/23 12:36:24;;;;;;;20.23;11.63;;;3.80;99.90;;;;;;4932056;29;20039;-77
2021/01/23 12:38:51;;;;;;;19.97;10.17;;;3.80;99.90;;;;;;4932637;28;20628;-78
2021/01/23 12:41:17;;;;;;;22.50;10.53;;;3.80;99.90;;;;;;4932660;28;20050;-77
2021/01/23 12:43:44;;;;;;;23.93;11.40;;;3.70;99.90;;;;;;4930909;29;20047;-77
2021/01/23 12:46:11;;;;;;;21.17;11.00;;;3.80;99.90;;;;;;4932701;29;20421;-78
2021/01/23 12:48:38;;;;;;;23.83;12.43;;;3.70;99.90;;;;;;4932501;29;20059;-77
2021/01/23 12:51:05;;;;;;;20.27;11.33;;;3.80;99.90;;;;;;4931754;28;20058;-78
2021/01/23 12:53:31;;;;;;;22.60;11.40;;;3.90;99.90;;;;;;4931458;28;20070;-77
2021/01/23 12:55:58;;;;;;;28.67;14.27;;;3.80;99.90;;;;;;4932115;29;20090;-77
2021/01/23 12:58:24;;;;;;;24.90;12.53;;;3.90;99.90;;;;;;4932962;29;20039;-77
2021/01/23 13:00:51;;;;;;;19.27;12.00;;;4.10;99.90;;;;;;4933138;28;20051;-77